地図

経路データ

SID SEASON NUMBER BASIN SUBBASIN NAME ISO_TIME NATURE LAT LON WMO_WIND WMO_PRES WMO_AGENCY TRACK_TYPE DIST2LAND LANDFALL IFLAG USA_AGENCY USA_ATCF_ID USA_LAT USA_LON USA_RECORD USA_STATUS USA_WIND USA_PRES USA_SSHS USA_R34_NE USA_R34_SE USA_R34_SW USA_R34_NW USA_R50_NE USA_R50_SE USA_R50_SW USA_R50_NW USA_R64_NE USA_R64_SE USA_R64_SW USA_R64_NW USA_POCI USA_ROCI USA_RMW USA_EYE TOKYO_LAT TOKYO_LON TOKYO_GRADE TOKYO_WIND TOKYO_PRES TOKYO_R50_DIR TOKYO_R50_LONG TOKYO_R50_SHORT TOKYO_R30_DIR TOKYO_R30_LONG TOKYO_R30_SHORT TOKYO_LAND CMA_LAT CMA_LON CMA_CAT CMA_WIND CMA_PRES HKO_LAT HKO_LON HKO_CAT HKO_WIND HKO_PRES NEWDELHI_LAT NEWDELHI_LON NEWDELHI_GRADE NEWDELHI_WIND NEWDELHI_PRES NEWDELHI_CI NEWDELHI_DP NEWDELHI_POCI REUNION_LAT REUNION_LON REUNION_TYPE REUNION_WIND REUNION_PRES REUNION_TNUM REUNION_CI REUNION_RMW REUNION_R34_NE REUNION_R34_SE REUNION_R34_SW REUNION_R34_NW REUNION_R50_NE REUNION_R50_SE REUNION_R50_SW REUNION_R50_NW REUNION_R64_NE REUNION_R64_SE REUNION_R64_SW REUNION_R64_NW BOM_LAT BOM_LON BOM_TYPE BOM_WIND BOM_PRES BOM_TNUM BOM_CI BOM_RMW BOM_R34_NE BOM_R34_SE BOM_R34_SW BOM_R34_NW BOM_R50_NE BOM_R50_SE BOM_R50_SW BOM_R50_NW BOM_R64_NE BOM_R64_SE BOM_R64_SW BOM_R64_NW BOM_ROCI BOM_POCI BOM_EYE BOM_POS_METHOD BOM_PRES_METHOD NADI_LAT NADI_LON NADI_CAT NADI_WIND NADI_PRES WELLINGTON_LAT WELLINGTON_LON WELLINGTON_WIND WELLINGTON_PRES DS824_LAT DS824_LON DS824_STAGE DS824_WIND DS824_PRES TD9636_LAT TD9636_LON TD9636_STAGE TD9636_WIND TD9636_PRES TD9635_LAT TD9635_LON TD9635_WIND TD9635_PRES TD9635_ROCI NEUMANN_LAT NEUMANN_LON NEUMANN_CLASS NEUMANN_WIND NEUMANN_PRES MLC_LAT MLC_LON MLC_CLASS MLC_WIND MLC_PRES USA_GUST BOM_GUST BOM_GUST_PER REUNION_GUST REUNION_GUST_PER USA_SEAHGT USA_SEARAD_NE USA_SEARAD_SE USA_SEARAD_SW USA_SEARAD_NW STORM_SPEED STORM_DIR
1942309N22288 1942 68 NA NA NOT_NAMED 1942-11-05 00:00:00 TS 21.8000 -72.0000 35 hurdat_atl main 123 121 O_____________ hurdat_atl AL111942 21.8000 -72.0000 TS 35 0 5 336
1942309N22288 1942 68 NA NA NOT_NAMED 1942-11-05 03:00:00 TS 22.0101 -72.1024 main 129 129 P_____________ AL111942 22.0101 -72.1024 TS 37 0 4 335
1942309N22288 1942 68 NA NA NOT_NAMED 1942-11-05 06:00:00 TS 22.2000 -72.2000 40 hurdat_atl main 139 139 O_____________ hurdat_atl AL111942 22.2000 -72.2000 TS 40 0 4 331
1942309N22288 1942 68 NA NA NOT_NAMED 1942-11-05 09:00:00 TS 22.3573 -72.3051 main 152 147 P_____________ AL111942 22.3573 -72.3051 TS 40 0 4 317
1942309N22288 1942 68 NA NA NOT_NAMED 1942-11-05 12:00:00 TS 22.5000 -72.5000 40 hurdat_atl main 154 151 O_____________ hurdat_atl AL111942 22.5000 -72.5000 TS 40 0 6 302
1942309N22288 1942 68 NA NA NOT_NAMED 1942-11-05 15:00:00 TS 22.6573 -72.8325 main 168 167 P_____________ AL111942 22.6573 -72.8325 TS 42 0 8 292
1942309N22288 1942 68 NA NA NOT_NAMED 1942-11-05 18:00:00 TS 22.8000 -73.3000 45 hurdat_atl main 179 179 O_____________ hurdat_atl AL111942 22.8000 -73.3000 TS 45 0 10 286
1942309N22288 1942 68 NA NA NOT_NAMED 1942-11-05 21:00:00 TS 22.9226 -73.8699 main 202 202 P_____________ AL111942 22.9226 -73.8699 TS 47 0 11 280
1942309N22288 1942 68 NA NA NOT_NAMED 1942-11-06 00:00:00 TS 23.0000 -74.5000 50 hurdat_atl main 227 227 O_____________ hurdat_atl AL111942 23.0000 -74.5000 TS 50 0 11 276
1942309N22288 1942 68 NA NA NOT_NAMED 1942-11-06 03:00:00 TS 23.0374 -75.1074 main 229 204 P_____________ AL111942 23.0374 -75.1074 TS 55 0 11 270
1942309N22288 1942 68 NA NA NOT_NAMED 1942-11-06 06:00:00 TS 23.0000 -75.7000 60 hurdat_atl main 204 162 O_____________ hurdat_atl AL111942 23.0000 -75.7000 TS 60 0 11 262
1942309N22288 1942 68 NA NA NOT_NAMED 1942-11-06 09:00:00 TS 22.8798 -76.2651 main 157 115 P_____________ AL111942 22.8798 -76.2651 TS 62 0 11 254
1942309N22288 1942 68 NA NA NOT_NAMED 1942-11-06 12:00:00 TS 22.7000 -76.8000 65 hurdat_atl main 115 84 O_____________ hurdat_atl AL111942 22.7000 -76.8000 HU 65 1 10 249
1942309N22288 1942 68 NA NA NOT_NAMED 1942-11-06 15:00:00 TS 22.5145 -77.2847 main 84 39 P_____________ AL111942 22.5145 -77.2847 HU 67 1 10 247
1942309N22288 1942 68 NA NA NOT_NAMED 1942-11-06 18:00:00 TS 22.3000 -77.8000 70 hurdat_atl main 39 0 O_____________ hurdat_atl AL111942 22.3000 -77.8000 HU 70 1 11 247
1942309N22288 1942 68 NA NA NOT_NAMED 1942-11-06 21:00:00 TS 22.0725 -78.4273 main 0 0 P_____________ AL111942 22.0725 -78.4273 HU 65 1 13 247
1942309N22288 1942 68 NA NA NOT_NAMED 1942-11-07 00:00:00 TS 21.8000 -79.1000 60 hurdat_atl main 0 0 O_____________ hurdat_atl AL111942 21.8000 -79.1000 TS 60 0 14 244
1942309N22288 1942 68 NA CS NOT_NAMED 1942-11-07 03:00:00 TS 21.4722 -79.7498 main 22 22 P_____________ AL111942 21.4722 -79.7498 TS 60 0 14 240
1942309N22288 1942 68 NA CS NOT_NAMED 1942-11-07 06:00:00 TS 21.1000 -80.4000 60 hurdat_atl main 78 78 O_____________ hurdat_atl AL111942 21.1000 -80.4000 TS 60 0 14 238
1942309N22288 1942 68 NA CS NOT_NAMED 1942-11-07 09:00:00 TS 20.6998 -81.0574 main 145 145 P_____________ AL111942 20.6998 -81.0574 TS 62 0 15 237
1942309N22288 1942 68 NA CS NOT_NAMED 1942-11-07 12:00:00 TS 20.3000 -81.7000 65 hurdat_atl main 167 161 O_____________ hurdat_atl AL111942 20.3000 -81.7000 HU 65 1 14 237
1942309N22288 1942 68 NA CS NOT_NAMED 1942-11-07 15:00:00 TS 19.9348 -82.3147 main 175 172 P_____________ AL111942 19.9348 -82.3147 HU 67 1 13 238
1942309N22288 1942 68 NA CS NOT_NAMED 1942-11-07 18:00:00 TS 19.6000 -82.9000 70 hurdat_atl main 201 201 O_____________ hurdat_atl AL111942 19.6000 -82.9000 HU 70 1 13 239
1942309N22288 1942 68 NA CS NOT_NAMED 1942-11-07 21:00:00 TS 19.2923 -83.4647 main 245 245 P_____________ AL111942 19.2923 -83.4647 HU 72 1 12 240
1942309N22288 1942 68 NA CS NOT_NAMED 1942-11-08 00:00:00 TS 19.0000 -84.0000 75 hurdat_atl main 296 296 O_____________ hurdat_atl AL111942 19.0000 -84.0000 HU 75 1 12 239
1942309N22288 1942 68 NA CS NOT_NAMED 1942-11-08 03:00:00 TS 18.6923 -84.5073 main 314 277 P_____________ AL111942 18.6923 -84.5073 HU 77 1 11 238
1942309N22288 1942 68 NA CS NOT_NAMED 1942-11-08 06:00:00 TS 18.4000 -85.0000 80 hurdat_atl main 277 238 O_____________ hurdat_atl AL111942 18.4000 -85.0000 HU 80 1 11 238
1942309N22288 1942 68 NA CS NOT_NAMED 1942-11-08 09:00:00 TS 18.1124 -85.5000 main 238 193 P_____________ AL111942 18.1124 -85.5000 HU 82 1 11 242
1942309N22288 1942 68 NA CS NOT_NAMED 1942-11-08 12:00:00 TS 17.9000 -86.0000 85 hurdat_atl main 193 144 O_____________ hurdat_atl AL111942 17.9000 -86.0000 HU 85 2 10 252
1942309N22288 1942 68 NA CS NOT_NAMED 1942-11-08 15:00:00 TS 17.8123 -86.4923 main 144 95 P_____________ AL111942 17.8123 -86.4923 HU 90 2 10 264
1942309N22288 1942 68 NA CS NOT_NAMED 1942-11-08 18:00:00 TS 17.8000 -87.0000 95 hurdat_atl main 95 54 O_____________ hurdat_atl AL111942 17.8000 -87.0000 HU 95 2 10 268
1942309N22288 1942 68 NA CS NOT_NAMED 1942-11-08 21:00:00 TS 17.7851 -87.5650 main 49 15 P_____________ AL111942 17.7851 -87.5650 HU 95 2 10 270
1942309N22288 1942 68 NA CS NOT_NAMED 1942-11-09 00:00:00 TS 17.8000 -88.1000 95 hurdat_atl main 15 0 O_____________ hurdat_atl AL111942 17.8000 -88.1000 HU 95 2 9 273
1942309N22288 1942 68 NA NA NOT_NAMED 1942-11-09 03:00:00 TS 17.8273 -88.5226 main 0 0 P_____________ AL111942 17.8273 -88.5226 HU 80 1 8 277
1942309N22288 1942 68 NA NA NOT_NAMED 1942-11-09 06:00:00 TS 17.9000 -88.9000 65 hurdat_atl main 0 0 O_____________ hurdat_atl AL111942 17.9000 -88.9000 HU 65 1 8 285
1942309N22288 1942 68 NA NA NOT_NAMED 1942-11-09 09:00:00 TS 18.0275 -89.3224 main 0 0 P_____________ AL111942 18.0275 -89.3224 HU 57 0 8 292
1942309N22288 1942 68 NA NA NOT_NAMED 1942-11-09 12:00:00 TS 18.2000 -89.7000 50 hurdat_atl main 0 0 O_____________ hurdat_atl AL111942 18.2000 -89.7000 TS 50 0 7 301
1942309N22288 1942 68 NA NA NOT_NAMED 1942-11-09 15:00:00 TS 18.3924 -89.9726 main 0 0 P_____________ AL111942 18.3924 -89.9726 TS 45 0 6 310
1942309N22288 1942 68 NA NA NOT_NAMED 1942-11-09 18:00:00 TS 18.6000 -90.2000 40 hurdat_atl main 0 0 O_____________ hurdat_atl AL111942 18.6000 -90.2000 TS 40 0 6 311
1942309N22288 1942 68 NA NA NOT_NAMED 1942-11-09 21:00:00 TS 18.7925 -90.4576 main 0 0 P_____________ AL111942 18.7925 -90.4576 TS 40 0 6 310
1942309N22288 1942 68 NA NA NOT_NAMED 1942-11-10 00:00:00 TS 19.0000 -90.7000 40 hurdat_atl main 0 0 O_____________ hurdat_atl AL111942 19.0000 -90.7000 TS 40 0 6 317
1942309N22288 1942 68 NA GM NOT_NAMED 1942-11-10 03:00:00 TS 19.2425 -90.9076 main 0 0 P_____________ AL111942 19.2425 -90.9076 TS 40 0 6 323
1942309N22288 1942 68 NA GM NOT_NAMED 1942-11-10 06:00:00 TS 19.5000 -91.1000 40 hurdat_atl main 35 35 O_____________ hurdat_atl AL111942 19.5000 -91.1000 TS 40 0 6 323
1942309N22288 1942 68 NA GM NOT_NAMED 1942-11-10 09:00:00 TS 19.7500 -91.3150 main 63 63 P_____________ AL111942 19.7500 -91.3150 TS 40 0 6 323
1942309N22288 1942 68 NA GM NOT_NAMED 1942-11-10 12:00:00 TS 20.0000 -91.5000 40 hurdat_atl main 90 90 O_____________ hurdat_atl AL111942 20.0000 -91.5000 TS 40 0 6 331
1942309N22288 1942 68 NA GM NOT_NAMED 1942-11-10 15:00:00 TS 20.2650 -91.6226 main 114 114 P_____________ AL111942 20.2650 -91.6226 TS 40 0 5 340
1942309N22288 1942 68 NA GM NOT_NAMED 1942-11-10 18:00:00 TS 20.5000 -91.7000 40 hurdat_atl main 124 124 O_____________ hurdat_atl AL111942 20.5000 -91.7000 TS 40 0 5 341
1942309N22288 1942 68 NA GM NOT_NAMED 1942-11-10 21:00:00 TS 20.7025 -91.7875 main 137 137 P_____________ AL111942 20.7025 -91.7875 TS 40 0 3 343
1942309N22288 1942 68 NA GM NOT_NAMED 1942-11-11 00:00:00 TS 20.8000 -91.8000 40 hurdat_atl main 139 129 O_____________ hurdat_atl AL111942 20.8000 -91.8000 TS 40 0 1 54
1942309N22288 1942 68 NA GM NOT_NAMED 1942-11-11 03:00:00 TS 20.7675 -91.6951 main 129 104 P_____________ AL111942 20.7675 -91.6951 TS 40 0 3 125
1942309N22288 1942 68 NA GM NOT_NAMED 1942-11-11 06:00:00 TS 20.6000 -91.5000 40 hurdat_atl main 104 83 O_____________ hurdat_atl AL111942 20.6000 -91.5000 TS 40 0 6 141
1942309N22288 1942 68 NA GM NOT_NAMED 1942-11-11 09:00:00 TS 20.3372 -91.3178 main 83 45 P_____________ AL111942 20.3372 -91.3178 TS 40 0 8 142
1942309N22288 1942 68 NA GM NOT_NAMED 1942-11-11 12:00:00 TS 20.0000 -91.0000 40 hurdat_atl main 45 0 O_____________ hurdat_atl AL111942 20.0000 -91.0000 TS 40 0 11 131
1942309N22288 1942 68 NA NA NOT_NAMED 1942-11-11 15:00:00 TS 19.6507 -90.4643 main 0 0 P_____________ AL111942 19.6507 -90.4643 TS 35 0 13 122
1942309N22288 1942 68 NA NA NOT_NAMED 1942-11-11 18:00:00 TS 19.3000 -89.8000 30 hurdat_atl main 0 O_____________ hurdat_atl AL111942 19.3000 -89.8000 TD 30 -1 14 119

IBTrACS Databaseについて

本データベースは、米国NOAAが公開する1842年以降の世界の熱帯低気圧のベストトラックデータアーカイブInternational Best Track Archive for Climate Stewardship (IBTrACS)を、ウェブで閲覧しやすい形式に変換したものです。

最終更新日:2021-11-26